sensor_id;sensor_type;location;lat;lon;timestamp;temperature;humidity
37658;DHT22;23500;53.268;8.308;2023-07-13T00:00:04;23.20;73.20
37658;DHT22;23500;53.268;8.308;2023-07-13T00:02:34;23.20;73.20
37658;DHT22;23500;53.268;8.308;2023-07-13T00:05:00;23.20;73.20
37658;DHT22;23500;53.268;8.308;2023-07-13T00:07:26;23.20;73.20
37658;DHT22;23500;53.268;8.308;2023-07-13T00:09:52;23.10;73.10
37658;DHT22;23500;53.268;8.308;2023-07-13T00:12:32;23.10;73.10
37658;DHT22;23500;53.268;8.308;2023-07-13T00:15:00;23.20;73.10
37658;DHT22;23500;53.268;8.308;2023-07-13T00:17:27;23.10;73.10
37658;DHT22;23500;53.268;8.308;2023-07-13T00:19:54;23.10;73.10
37658;DHT22;23500;53.268;8.308;2023-07-13T00:22:21;23.10;73.10
37658;DHT22;23500;53.268;8.308;2023-07-13T00:24:49;23.10;73.10
37658;DHT22;23500;53.268;8.308;2023-07-13T00:27:17;23.10;73.10
37658;DHT22;23500;53.268;8.308;2023-07-13T00:29:43;23.10;73.00
37658;DHT22;23500;53.268;8.308;2023-07-13T00:32:09;23.10;73.10
37658;DHT22;23500;53.268;8.308;2023-07-13T00:34:37;23.10;73.10
37658;DHT22;23500;53.268;8.308;2023-07-13T00:37:03;23.10;73.10
37658;DHT22;23500;53.268;8.308;2023-07-13T00:39:33;23.10;73.00
37658;DHT22;23500;53.268;8.308;2023-07-13T00:41:59;23.10;73.00
37658;DHT22;23500;53.268;8.308;2023-07-13T00:44:25;23.10;73.00
37658;DHT22;23500;53.268;8.308;2023-07-13T00:46:50;23.10;73.00
37658;DHT22;23500;53.268;8.308;2023-07-13T00:49:19;23.10;73.00
37658;DHT22;23500;53.268;8.308;2023-07-13T00:54:29;23.10;73.00
37658;DHT22;23500;53.268;8.308;2023-07-13T00:56:58;23.10;73.00
37658;DHT22;23500;53.268;8.308;2023-07-13T00:59:25;23.10;73.00
37658;DHT22;23500;53.268;8.308;2023-07-13T01:01:50;23.10;73.00
37658;DHT22;23500;53.268;8.308;2023-07-13T01:04:17;23.10;73.00
37658;DHT22;23500;53.268;8.308;2023-07-13T01:06:43;23.10;73.00
37658;DHT22;23500;53.268;8.308;2023-07-13T01:09:10;23.10;73.00
37658;DHT22;23500;53.268;8.308;2023-07-13T01:11:36;23.10;73.10
37658;DHT22;23500;53.268;8.308;2023-07-13T01:14:03;23.10;72.90
37658;DHT22;23500;53.268;8.308;2023-07-13T01:16:32;23.10;73.00
37658;DHT22;23500;53.268;8.308;2023-07-13T01:18:58;23.10;73.00
37658;DHT22;23500;53.268;8.308;2023-07-13T01:21:25;23.10;72.90
37658;DHT22;23500;53.268;8.308;2023-07-13T01:23:51;23.10;72.90
37658;DHT22;23500;53.268;8.308;2023-07-13T01:26:17;23.10;72.90
37658;DHT22;23500;53.268;8.308;2023-07-13T01:28:43;23.10;72.90
37658;DHT22;23500;53.268;8.308;2023-07-13T01:31:09;23.10;72.90
37658;DHT22;23500;53.268;8.308;2023-07-13T01:33:37;23.00;72.80
37658;DHT22;23500;53.268;8.308;2023-07-13T01:36:03;23.00;72.90
37658;DHT22;23500;53.268;8.308;2023-07-13T01:38:29;23.10;72.90
37658;DHT22;23500;53.268;8.308;2023-07-13T01:40:54;23.00;72.80
37658;DHT22;23500;53.268;8.308;2023-07-13T01:43:20;23.00;72.80
37658;DHT22;23500;53.268;8.308;2023-07-13T01:45:46;23.00;72.80
37658;DHT22;23500;53.268;8.308;2023-07-13T01:48:13;23.10;73.00
37658;DHT22;23500;53.268;8.308;2023-07-13T01:50:39;23.00;72.80
37658;DHT22;23500;53.268;8.308;2023-07-13T01:53:06;23.00;72.90
37658;DHT22;23500;53.268;8.308;2023-07-13T01:55:32;23.00;72.80
37658;DHT22;23500;53.268;8.308;2023-07-13T01:57:58;23.00;72.90
37658;DHT22;23500;53.268;8.308;2023-07-13T02:00:24;23.00;72.80
37658;DHT22;23500;53.268;8.308;2023-07-13T02:02:50;23.00;72.80
37658;DHT22;23500;53.268;8.308;2023-07-13T02:05:16;23.00;72.80
37658;DHT22;23500;53.268;8.308;2023-07-13T02:07:42;23.00;72.80
37658;DHT22;23500;53.268;8.308;2023-07-13T02:10:09;23.00;72.80
37658;DHT22;23500;53.268;8.308;2023-07-13T02:12:35;23.00;72.80
37658;DHT22;23500;53.268;8.308;2023-07-13T02:15:01;23.00;72.80
37658;DHT22;23500;53.268;8.308;2023-07-13T02:17:27;23.00;72.80
37658;DHT22;23500;53.268;8.308;2023-07-13T02:19:53;23.00;72.80
37658;DHT22;23500;53.268;8.308;2023-07-13T02:22:19;23.00;72.80
37658;DHT22;23500;53.268;8.308;2023-07-13T02:24:45;23.00;72.80
37658;DHT22;23500;53.268;8.308;2023-07-13T02:27:10;23.00;72.80
37658;DHT22;23500;53.268;8.308;2023-07-13T02:29:36;23.00;72.80
37658;DHT22;23500;53.268;8.308;2023-07-13T02:32:02;23.00;72.80
37658;DHT22;23500;53.268;8.308;2023-07-13T02:34:28;23.00;72.80
37658;DHT22;23500;53.268;8.308;2023-07-13T02:36:54;23.00;72.80
37658;DHT22;23500;53.268;8.308;2023-07-13T02:39:19;23.00;73.50
37658;DHT22;23500;53.268;8.308;2023-07-13T02:41:45;23.00;72.70
37658;DHT22;23500;53.268;8.308;2023-07-13T02:44:13;23.00;73.50
37658;DHT22;23500;53.268;8.308;2023-07-13T02:46:39;22.90;72.70
37658;DHT22;23500;53.268;8.308;2023-07-13T02:49:06;22.90;72.70
37658;DHT22;23500;53.268;8.308;2023-07-13T02:51:32;22.90;72.70
37658;DHT22;23500;53.268;8.308;2023-07-13T02:54:02;23.00;72.70
37658;DHT22;23500;53.268;8.308;2023-07-13T02:56:29;23.00;72.70
37658;DHT22;23500;53.268;8.308;2023-07-13T02:58:56;22.90;72.60
37658;DHT22;23500;53.268;8.308;2023-07-13T03:01:22;22.90;73.40
37658;DHT22;23500;53.268;8.308;2023-07-13T03:03:49;22.90;72.70
37658;DHT22;23500;53.268;8.308;2023-07-13T03:06:15;22.90;72.60
37658;DHT22;23500;53.268;8.308;2023-07-13T03:08:42;22.90;72.60
37658;DHT22;23500;53.268;8.308;2023-07-13T03:11:11;22.90;72.60
37658;DHT22;23500;53.268;8.308;2023-07-13T03:13:39;22.90;72.60
37658;DHT22;23500;53.268;8.308;2023-07-13T03:16:05;22.90;72.60
37658;DHT22;23500;53.268;8.308;2023-07-13T03:18:31;22.90;72.60
37658;DHT22;23500;53.268;8.308;2023-07-13T03:20:57;22.90;72.60
37658;DHT22;23500;53.268;8.308;2023-07-13T03:23:23;22.90;72.50
37658;DHT22;23500;53.268;8.308;2023-07-13T03:25:50;22.90;72.60
37658;DHT22;23500;53.268;8.308;2023-07-13T03:28:16;22.90;72.50
37658;DHT22;23500;53.268;8.308;2023-07-13T03:30:42;22.90;72.60
37658;DHT22;23500;53.268;8.308;2023-07-13T03:33:08;22.90;72.60
37658;DHT22;23500;53.268;8.308;2023-07-13T03:35:34;22.90;72.50
37658;DHT22;23500;53.268;8.308;2023-07-13T03:38:00;22.90;72.60
37658;DHT22;23500;53.268;8.308;2023-07-13T03:40:28;22.90;72.60
37658;DHT22;23500;53.268;8.308;2023-07-13T03:42:53;22.90;72.60
37658;DHT22;23500;53.268;8.308;2023-07-13T03:45:19;22.90;72.50
37658;DHT22;23500;53.268;8.308;2023-07-13T03:47:45;22.90;72.60
37658;DHT22;23500;53.268;8.308;2023-07-13T03:50:11;22.90;72.60
37658;DHT22;23500;53.268;8.308;2023-07-13T03:52:37;22.80;72.60
37658;DHT22;23500;53.268;8.308;2023-07-13T03:55:03;22.90;72.50
37658;DHT22;23500;53.268;8.308;2023-07-13T03:57:29;22.90;72.60
37658;DHT22;23500;53.268;8.308;2023-07-13T03:59:54;22.80;72.50
37658;DHT22;23500;53.268;8.308;2023-07-13T04:02:20;22.90;72.60
37658;DHT22;23500;53.268;8.308;2023-07-13T04:04:46;22.80;72.50
37658;DHT22;23500;53.268;8.308;2023-07-13T04:07:12;22.80;72.50
37658;DHT22;23500;53.268;8.308;2023-07-13T04:09:38;22.80;72.50
37658;DHT22;23500;53.268;8.308;2023-07-13T04:12:04;22.90;72.50
37658;DHT22;23500;53.268;8.308;2023-07-13T04:14:30;22.80;72.60
37658;DHT22;23500;53.268;8.308;2023-07-13T04:16:56;22.90;72.70
37658;DHT22;23500;53.268;8.308;2023-07-13T04:19:21;22.80;72.70
37658;DHT22;23500;53.268;8.308;2023-07-13T04:21:47;22.80;72.70
37658;DHT22;23500;53.268;8.308;2023-07-13T04:24:13;22.80;72.70
37658;DHT22;23500;53.268;8.308;2023-07-13T04:26:39;22.80;72.70
37658;DHT22;23500;53.268;8.308;2023-07-13T04:29:06;22.90;72.70
37658;DHT22;23500;53.268;8.308;2023-07-13T04:31:32;22.90;73.40
37658;DHT22;23500;53.268;8.308;2023-07-13T04:33:57;22.90;72.60
37658;DHT22;23500;53.268;8.308;2023-07-13T04:36:24;22.90;72.60
37658;DHT22;23500;53.268;8.308;2023-07-13T04:38:52;22.90;72.70
37658;DHT22;23500;53.268;8.308;2023-07-13T04:41:20;22.90;72.60
37658;DHT22;23500;53.268;8.308;2023-07-13T04:43:45;22.90;72.60
37658;DHT22;23500;53.268;8.308;2023-07-13T04:46:14;22.90;72.50
37658;DHT22;23500;53.268;8.308;2023-07-13T04:48:40;22.90;72.50
37658;DHT22;23500;53.268;8.308;2023-07-13T04:51:05;22.90;72.30
37658;DHT22;23500;53.268;8.308;2023-07-13T04:53:32;22.90;72.30
37658;DHT22;23500;53.268;8.308;2023-07-13T04:56:00;22.90;72.30
37658;DHT22;23500;53.268;8.308;2023-07-13T04:58:26;22.90;72.20
37658;DHT22;23500;53.268;8.308;2023-07-13T05:00:53;22.90;72.20
37658;DHT22;23500;53.268;8.308;2023-07-13T05:03:19;22.90;72.20
37658;DHT22;23500;53.268;8.308;2023-07-13T05:05:57;22.90;72.20
37658;DHT22;23500;53.268;8.308;2023-07-13T05:08:23;22.90;72.10
37658;DHT22;23500;53.268;8.308;2023-07-13T05:10:50;22.90;72.10
37658;DHT22;23500;53.268;8.308;2023-07-13T05:13:16;22.90;72.20
37658;DHT22;23500;53.268;8.308;2023-07-13T05:15:42;22.90;72.20
37658;DHT22;23500;53.268;8.308;2023-07-13T05:18:07;22.80;71.20
37658;DHT22;23500;53.268;8.308;2023-07-13T05:20:33;22.80;69.80
37658;DHT22;23500;53.268;8.308;2023-07-13T05:22:59;22.80;69.60
37658;DHT22;23500;53.268;8.308;2023-07-13T05:25:24;22.70;70.20
37658;DHT22;23500;53.268;8.308;2023-07-13T05:27:50;22.70;70.50
37658;DHT22;23500;53.268;8.308;2023-07-13T05:30:16;22.70;70.60
37658;DHT22;23500;53.268;8.308;2023-07-13T05:32:41;22.80;71.00
37658;DHT22;23500;53.268;8.308;2023-07-13T05:35:08;22.70;71.10
37658;DHT22;23500;53.268;8.308;2023-07-13T05:37:34;22.80;71.20
37658;DHT22;23500;53.268;8.308;2023-07-13T05:40:00;22.80;71.00
37658;DHT22;23500;53.268;8.308;2023-07-13T05:42:25;22.70;70.70
37658;DHT22;23500;53.268;8.308;2023-07-13T05:44:51;22.80;70.90
37658;DHT22;23500;53.268;8.308;2023-07-13T05:47:17;22.70;71.10
37658;DHT22;23500;53.268;8.308;2023-07-13T05:49:42;22.80;71.20
37658;DHT22;23500;53.268;8.308;2023-07-13T05:52:08;22.80;71.20
37658;DHT22;23500;53.268;8.308;2023-07-13T05:54:34;22.80;71.20
37658;DHT22;23500;53.268;8.308;2023-07-13T05:56:59;22.80;71.20
37658;DHT22;23500;53.268;8.308;2023-07-13T05:59:25;22.80;71.20
37658;DHT22;23500;53.268;8.308;2023-07-13T06:01:51;22.80;71.10
37658;DHT22;23500;53.268;8.308;2023-07-13T06:04:18;22.80;71.10
37658;DHT22;23500;53.268;8.308;2023-07-13T06:06:44;22.80;71.10
37658;DHT22;23500;53.268;8.308;2023-07-13T06:09:10;22.80;71.10
37658;DHT22;23500;53.268;8.308;2023-07-13T06:11:35;22.80;71.00
37658;DHT22;23500;53.268;8.308;2023-07-13T06:14:01;22.80;71.00
37658;DHT22;23500;53.268;8.308;2023-07-13T06:16:27;22.90;71.10
37658;DHT22;23500;53.268;8.308;2023-07-13T06:18:52;22.90;71.00
37658;DHT22;23500;53.268;8.308;2023-07-13T06:21:20;22.90;70.80
37658;DHT22;23500;53.268;8.308;2023-07-13T06:23:48;22.90;70.90
37658;DHT22;23500;53.268;8.308;2023-07-13T06:26:14;22.90;70.60
37658;DHT22;23500;53.268;8.308;2023-07-13T06:28:40;23.00;70.60
37658;DHT22;23500;53.268;8.308;2023-07-13T06:31:10;23.00;70.60
37658;DHT22;23500;53.268;8.308;2023-07-13T06:33:36;23.10;70.50
37658;DHT22;23500;53.268;8.308;2023-07-13T06:36:04;23.10;70.50
37658;DHT22;23500;53.268;8.308;2023-07-13T06:38:30;23.10;70.40
37658;DHT22;23500;53.268;8.308;2023-07-13T06:40:56;23.10;70.40
37658;DHT22;23500;53.268;8.308;2023-07-13T06:43:22;23.20;70.30
37658;DHT22;23500;53.268;8.308;2023-07-13T06:45:50;23.20;70.30
37658;DHT22;23500;53.268;8.308;2023-07-13T06:48:17;23.20;70.20
37658;DHT22;23500;53.268;8.308;2023-07-13T06:50:43;23.20;70.20
37658;DHT22;23500;53.268;8.308;2023-07-13T06:53:10;23.20;70.10
37658;DHT22;23500;53.268;8.308;2023-07-13T06:55:36;23.30;70.20
37658;DHT22;23500;53.268;8.308;2023-07-13T06:58:01;23.30;70.20
37658;DHT22;23500;53.268;8.308;2023-07-13T07:00:27;23.30;70.10
37658;DHT22;23500;53.268;8.308;2023-07-13T07:02:53;23.30;70.10
37658;DHT22;23500;53.268;8.308;2023-07-13T07:05:18;23.30;70.10
37658;DHT22;23500;53.268;8.308;2023-07-13T07:07:50;23.30;70.10
37658;DHT22;23500;53.268;8.308;2023-07-13T07:10:16;23.30;70.20
37658;DHT22;23500;53.268;8.308;2023-07-13T07:12:42;23.30;70.10
37658;DHT22;23500;53.268;8.308;2023-07-13T07:15:08;23.30;70.00
37658;DHT22;23500;53.268;8.308;2023-07-13T07:17:33;23.30;70.10
37658;DHT22;23500;53.268;8.308;2023-07-13T07:19:59;23.30;70.10
37658;DHT22;23500;53.268;8.308;2023-07-13T07:22:25;23.30;70.00
37658;DHT22;23500;53.268;8.308;2023-07-13T07:24:53;23.30;70.70
37658;DHT22;23500;53.268;8.308;2023-07-13T07:27:19;23.30;69.90
37658;DHT22;23500;53.268;8.308;2023-07-13T07:29:45;23.30;70.00
37658;DHT22;23500;53.268;8.308;2023-07-13T07:32:10;23.30;70.00
37658;DHT22;23500;53.268;8.308;2023-07-13T07:34:36;23.30;70.00
37658;DHT22;23500;53.268;8.308;2023-07-13T07:37:02;23.30;70.00
37658;DHT22;23500;53.268;8.308;2023-07-13T07:39:28;23.30;70.00
37658;DHT22;23500;53.268;8.308;2023-07-13T07:41:54;23.30;70.00
37658;DHT22;23500;53.268;8.308;2023-07-13T07:44:20;23.30;69.90
37658;DHT22;23500;53.268;8.308;2023-07-13T07:46:46;23.30;69.80
37658;DHT22;23500;53.268;8.308;2023-07-13T07:49:12;23.30;69.90
37658;DHT22;23500;53.268;8.308;2023-07-13T07:51:37;23.30;69.80
37658;DHT22;23500;53.268;8.308;2023-07-13T07:54:04;23.30;69.50
37658;DHT22;23500;53.268;8.308;2023-07-13T07:56:30;23.30;69.70
37658;DHT22;23500;53.268;8.308;2023-07-13T07:58:56;23.30;69.80
37658;DHT22;23500;53.268;8.308;2023-07-13T08:01:22;23.30;69.90
37658;DHT22;23500;53.268;8.308;2023-07-13T08:03:48;23.30;69.90
37658;DHT22;23500;53.268;8.308;2023-07-13T08:06:14;23.30;69.80
37658;DHT22;23500;53.268;8.308;2023-07-13T08:08:39;23.30;69.70
37658;DHT22;23500;53.268;8.308;2023-07-13T08:11:06;23.30;69.80
37658;DHT22;23500;53.268;8.308;2023-07-13T08:13:32;23.30;69.90
37658;DHT22;23500;53.268;8.308;2023-07-13T08:15:58;23.30;69.80
37658;DHT22;23500;53.268;8.308;2023-07-13T08:18:24;23.30;69.80
37658;DHT22;23500;53.268;8.308;2023-07-13T08:20:50;23.30;69.80
37658;DHT22;23500;53.268;8.308;2023-07-13T08:23:16;23.30;69.90
37658;DHT22;23500;53.268;8.308;2023-07-13T08:25:42;23.30;69.80
37658;DHT22;23500;53.268;8.308;2023-07-13T08:28:08;23.30;69.90
37658;DHT22;23500;53.268;8.308;2023-07-13T08:30:34;23.30;69.80
37658;DHT22;23500;53.268;8.308;2023-07-13T08:33:01;23.30;69.90
37658;DHT22;23500;53.268;8.308;2023-07-13T08:35:27;23.30;69.70
37658;DHT22;23500;53.268;8.308;2023-07-13T08:37:53;23.30;69.90
37658;DHT22;23500;53.268;8.308;2023-07-13T08:40:24;23.30;69.90
37658;DHT22;23500;53.268;8.308;2023-07-13T08:42:58;23.30;69.80
37658;DHT22;23500;53.268;8.308;2023-07-13T08:48:54;23.30;69.50
37658;DHT22;23500;53.268;8.308;2023-07-13T08:56:50;23.30;69.70
37658;DHT22;23500;53.268;8.308;2023-07-13T08:59:22;23.30;69.70
37658;DHT22;23500;53.268;8.308;2023-07-13T09:10:14;23.30;69.70
37658;DHT22;23500;53.268;8.308;2023-07-13T09:15:30;23.30;69.70
37658;DHT22;23500;53.268;8.308;2023-07-13T09:18:00;23.30;69.70
37658;DHT22;23500;53.268;8.308;2023-07-13T09:20:32;23.30;69.90
37658;DHT22;23500;53.268;8.308;2023-07-13T09:23:01;23.30;69.80
37658;DHT22;23500;53.268;8.308;2023-07-13T09:25:36;23.30;69.80
37658;DHT22;23500;53.268;8.308;2023-07-13T09:28:11;23.30;69.80
37658;DHT22;23500;53.268;8.308;2023-07-13T09:31:04;23.30;69.80
37658;DHT22;23500;53.268;8.308;2023-07-13T09:33:31;23.30;69.80
37658;DHT22;23500;53.268;8.308;2023-07-13T09:36:00;23.30;69.80
37658;DHT22;23500;53.268;8.308;2023-07-13T09:38:29;23.30;69.80
37658;DHT22;23500;53.268;8.308;2023-07-13T09:41:14;23.30;69.90
37658;DHT22;23500;53.268;8.308;2023-07-13T09:44:31;23.30;69.90
37658;DHT22;23500;53.268;8.308;2023-07-13T09:46:59;23.30;69.90
37658;DHT22;23500;53.268;8.308;2023-07-13T09:49:35;23.30;69.60
37658;DHT22;23500;53.268;8.308;2023-07-13T09:52:12;23.30;69.70
37658;DHT22;23500;53.268;8.308;2023-07-13T09:54:39;23.30;69.90
37658;DHT22;23500;53.268;8.308;2023-07-13T09:57:14;23.30;69.90
37658;DHT22;23500;53.268;8.308;2023-07-13T09:59:44;23.30;69.90
37658;DHT22;23500;53.268;8.308;2023-07-13T10:02:30;23.30;69.80
37658;DHT22;23500;53.268;8.308;2023-07-13T10:05:13;23.30;69.90
37658;DHT22;23500;53.268;8.308;2023-07-13T10:07:43;23.30;69.90
37658;DHT22;23500;53.268;8.308;2023-07-13T10:10:17;23.20;69.80
37658;DHT22;23500;53.268;8.308;2023-07-13T10:12:44;23.20;69.80
37658;DHT22;23500;53.268;8.308;2023-07-13T10:15:16;23.20;69.80
37658;DHT22;23500;53.268;8.308;2023-07-13T10:17:43;23.20;69.80
37658;DHT22;23500;53.268;8.308;2023-07-13T10:20:10;23.30;69.80
37658;DHT22;23500;53.268;8.308;2023-07-13T10:22:59;23.30;69.90
37658;DHT22;23500;53.268;8.308;2023-07-13T10:25:29;23.30;70.00
37658;DHT22;23500;53.268;8.308;2023-07-13T10:28:11;23.30;69.90
37658;DHT22;23500;53.268;8.308;2023-07-13T10:30:40;23.30;69.90
37658;DHT22;23500;53.268;8.308;2023-07-13T10:33:10;23.30;70.00
37658;DHT22;23500;53.268;8.308;2023-07-13T10:35:40;23.30;70.00
37658;DHT22;23500;53.268;8.308;2023-07-13T10:38:12;23.30;70.00
37658;DHT22;23500;53.268;8.308;2023-07-13T10:40:40;23.30;70.00
37658;DHT22;23500;53.268;8.308;2023-07-13T10:43:18;23.30;70.10
37658;DHT22;23500;53.268;8.308;2023-07-13T10:45:46;23.30;70.00
37658;DHT22;23500;53.268;8.308;2023-07-13T10:48:16;23.30;70.00
37658;DHT22;23500;53.268;8.308;2023-07-13T10:50:45;23.30;70.00
37658;DHT22;23500;53.268;8.308;2023-07-13T10:53:34;23.30;70.00
37658;DHT22;23500;53.268;8.308;2023-07-13T10:59:09;23.30;69.90
37658;DHT22;23500;53.268;8.308;2023-07-13T11:04:13;23.20;69.60
37658;DHT22;23500;53.268;8.308;2023-07-13T11:06:41;23.20;69.40
37658;DHT22;23500;53.268;8.308;2023-07-13T11:12:10;23.20;69.70
37658;DHT22;23500;53.268;8.308;2023-07-13T11:17:37;23.20;69.70
37658;DHT22;23500;53.268;8.308;2023-07-13T11:22:50;23.20;69.70
37658;DHT22;23500;53.268;8.308;2023-07-13T11:25:33;23.20;69.70
37658;DHT22;23500;53.268;8.308;2023-07-13T11:36:14;23.20;69.70
37658;DHT22;23500;53.268;8.308;2023-07-13T11:38:41;23.20;69.70
37658;DHT22;23500;53.268;8.308;2023-07-13T11:41:16;23.20;69.70
37658;DHT22;23500;53.268;8.308;2023-07-13T11:43:42;23.20;70.10
37658;DHT22;23500;53.268;8.308;2023-07-13T11:46:23;23.20;69.60
37658;DHT22;23500;53.268;8.308;2023-07-13T11:48:49;23.20;69.70
37658;DHT22;23500;53.268;8.308;2023-07-13T11:51:28;23.20;69.70
37658;DHT22;23500;53.268;8.308;2023-07-13T11:53:57;23.20;69.70
37658;DHT22;23500;53.268;8.308;2023-07-13T11:56:25;23.20;69.70
37658;DHT22;23500;53.268;8.308;2023-07-13T11:58:53;23.20;69.80
37658;DHT22;23500;53.268;8.308;2023-07-13T12:01:22;23.20;69.70
37658;DHT22;23500;53.268;8.308;2023-07-13T12:03:49;23.20;69.70
37658;DHT22;23500;53.268;8.308;2023-07-13T12:06:27;23.20;69.80
37658;DHT22;23500;53.268;8.308;2023-07-13T12:09:00;23.20;69.70
37658;DHT22;23500;53.268;8.308;2023-07-13T12:11:27;23.20;69.70
37658;DHT22;23500;53.268;8.308;2023-07-13T12:13:53;23.20;69.70
37658;DHT22;23500;53.268;8.308;2023-07-13T12:16:30;23.30;69.70
37658;DHT22;23500;53.268;8.308;2023-07-13T12:18:59;23.30;69.70
37658;DHT22;23500;53.268;8.308;2023-07-13T12:21:37;23.20;69.70
37658;DHT22;23500;53.268;8.308;2023-07-13T12:24:04;23.30;69.70
37658;DHT22;23500;53.268;8.308;2023-07-13T12:26:31;23.20;69.70
37658;DHT22;23500;53.268;8.308;2023-07-13T12:29:00;23.20;69.60
37658;DHT22;23500;53.268;8.308;2023-07-13T12:31:30;23.30;70.50
37658;DHT22;23500;53.268;8.308;2023-07-13T12:34:01;23.30;69.70
37658;DHT22;23500;53.268;8.308;2023-07-13T12:36:31;23.30;69.70
37658;DHT22;23500;53.268;8.308;2023-07-13T12:39:03;23.30;69.70
37658;DHT22;23500;53.268;8.308;2023-07-13T12:41:31;23.30;69.70
37658;DHT22;23500;53.268;8.308;2023-07-13T12:43:59;23.30;69.60
37658;DHT22;23500;53.268;8.308;2023-07-13T12:46:26;23.30;69.60
37658;DHT22;23500;53.268;8.308;2023-07-13T12:48:54;23.30;69.50
37658;DHT22;23500;53.268;8.308;2023-07-13T12:51:24;23.30;69.50
37658;DHT22;23500;53.268;8.308;2023-07-13T12:53:57;23.30;69.50
37658;DHT22;23500;53.268;8.308;2023-07-13T12:56:25;23.30;69.40
37658;DHT22;23500;53.268;8.308;2023-07-13T12:58:59;23.30;69.50
37658;DHT22;23500;53.268;8.308;2023-07-13T13:01:32;23.30;70.20
37658;DHT22;23500;53.268;8.308;2023-07-13T13:04:02;23.30;69.50
37658;DHT22;23500;53.268;8.308;2023-07-13T13:06:32;23.30;69.50
37658;DHT22;23500;53.268;8.308;2023-07-13T13:08:59;23.30;69.50
37658;DHT22;23500;53.268;8.308;2023-07-13T13:11:26;23.30;69.50
37658;DHT22;23500;53.268;8.308;2023-07-13T13:13:53;23.30;69.60
37658;DHT22;23500;53.268;8.308;2023-07-13T13:18:56;23.30;69.80
37658;DHT22;23500;53.268;8.308;2023-07-13T13:21:26;23.20;67.90
37658;DHT22;23500;53.268;8.308;2023-07-13T13:23:52;23.20;68.00
37658;DHT22;23500;53.268;8.308;2023-07-13T13:26:19;23.20;67.30
37658;DHT22;23500;53.268;8.308;2023-07-13T13:28:46;23.20;67.30
37658;DHT22;23500;53.268;8.308;2023-07-13T13:31:15;23.10;67.20
37658;DHT22;23500;53.268;8.308;2023-07-13T13:33:42;23.20;67.00
37658;DHT22;23500;53.268;8.308;2023-07-13T13:36:18;23.20;67.10
37658;DHT22;23500;53.268;8.308;2023-07-13T13:38:45;23.10;67.10
37658;DHT22;23500;53.268;8.308;2023-07-13T13:41:13;23.10;67.00
37658;DHT22;23500;53.268;8.308;2023-07-13T13:43:40;23.10;67.20
37658;DHT22;23500;53.268;8.308;2023-07-13T13:46:17;23.10;66.80
37658;DHT22;23500;53.268;8.308;2023-07-13T13:48:44;23.10;66.80
37658;DHT22;23500;53.268;8.308;2023-07-13T13:51:16;23.10;66.90
37658;DHT22;23500;53.268;8.308;2023-07-13T13:53:42;23.10;67.00
37658;DHT22;23500;53.268;8.308;2023-07-13T13:56:08;23.10;67.10
37658;DHT22;23500;53.268;8.308;2023-07-13T13:58:34;23.10;67.30
37658;DHT22;23500;53.268;8.308;2023-07-13T14:01:00;23.10;67.60
37658;DHT22;23500;53.268;8.308;2023-07-13T14:03:26;23.10;67.70
37658;DHT22;23500;53.268;8.308;2023-07-13T14:05:54;23.10;67.90
37658;DHT22;23500;53.268;8.308;2023-07-13T14:08:22;23.10;68.00
37658;DHT22;23500;53.268;8.308;2023-07-13T14:10:51;23.10;68.20
37658;DHT22;23500;53.268;8.308;2023-07-13T14:13:26;23.10;68.30
37658;DHT22;23500;53.268;8.308;2023-07-13T14:15:55;23.10;68.40
37658;DHT22;23500;53.268;8.308;2023-07-13T14:18:21;23.10;68.40
37658;DHT22;23500;53.268;8.308;2023-07-13T14:20:47;23.10;68.50
37658;DHT22;23500;53.268;8.308;2023-07-13T14:23:14;23.10;68.60
37658;DHT22;23500;53.268;8.308;2023-07-13T14:25:44;23.10;68.60
37658;DHT22;23500;53.268;8.308;2023-07-13T14:28:26;23.10;68.60
37658;DHT22;23500;53.268;8.308;2023-07-13T14:30:53;23.10;68.50
37658;DHT22;23500;53.268;8.308;2023-07-13T14:33:20;23.10;68.60
37658;DHT22;23500;53.268;8.308;2023-07-13T14:35:45;23.10;68.70
37658;DHT22;23500;53.268;8.308;2023-07-13T14:38:15;23.10;68.60
37658;DHT22;23500;53.268;8.308;2023-07-13T14:40:41;23.10;68.60
37658;DHT22;23500;53.268;8.308;2023-07-13T14:43:11;23.10;68.70
37658;DHT22;23500;53.268;8.308;2023-07-13T14:45:40;23.10;68.70
37658;DHT22;23500;53.268;8.308;2023-07-13T14:48:23;23.10;68.60
37658;DHT22;23500;53.268;8.308;2023-07-13T14:50:58;23.10;68.60
37658;DHT22;23500;53.268;8.308;2023-07-13T14:53:27;23.10;68.80
37658;DHT22;23500;53.268;8.308;2023-07-13T14:55:55;23.10;69.40
37658;DHT22;23500;53.268;8.308;2023-07-13T14:58:21;23.10;68.80
37658;DHT22;23500;53.268;8.308;2023-07-13T15:00:47;23.10;68.70
37658;DHT22;23500;53.268;8.308;2023-07-13T15:03:23;23.10;68.80
37658;DHT22;23500;53.268;8.308;2023-07-13T15:05:50;23.20;68.90
37658;DHT22;23500;53.268;8.308;2023-07-13T15:08:16;23.10;68.90
37658;DHT22;23500;53.268;8.308;2023-07-13T15:10:42;23.10;68.80
37658;DHT22;23500;53.268;8.308;2023-07-13T15:13:20;23.10;68.80
37658;DHT22;23500;53.268;8.308;2023-07-13T15:15:50;23.10;68.90
37658;DHT22;23500;53.268;8.308;2023-07-13T15:18:23;23.10;68.80
37658;DHT22;23500;53.268;8.308;2023-07-13T15:20:50;23.10;68.80
37658;DHT22;23500;53.268;8.308;2023-07-13T15:23:18;23.10;68.80
37658;DHT22;23500;53.268;8.308;2023-07-13T15:25:44;23.10;68.90
37658;DHT22;23500;53.268;8.308;2023-07-13T15:28:10;23.10;68.80
37658;DHT22;23500;53.268;8.308;2023-07-13T15:30:41;23.10;68.90
37658;DHT22;23500;53.268;8.308;2023-07-13T15:35:43;23.10;68.90
37658;DHT22;23500;53.268;8.308;2023-07-13T15:38:18;23.10;68.90
37658;DHT22;23500;53.268;8.308;2023-07-13T15:40:45;23.10;68.90
37658;DHT22;23500;53.268;8.308;2023-07-13T15:43:13;23.10;68.90
37658;DHT22;23500;53.268;8.308;2023-07-13T15:45:40;23.10;69.00
37658;DHT22;23500;53.268;8.308;2023-07-13T15:48:20;23.10;69.60
37658;DHT22;23500;53.268;8.308;2023-07-13T15:50:52;23.20;69.20
37658;DHT22;23500;53.268;8.308;2023-07-13T15:53:22;23.20;69.20
37658;DHT22;23500;53.268;8.308;2023-07-13T15:55:48;23.20;69.10
37658;DHT22;23500;53.268;8.308;2023-07-13T15:58:15;23.20;69.10
37658;DHT22;23500;53.268;8.308;2023-07-13T16:00:41;23.20;69.20
37658;DHT22;23500;53.268;8.308;2023-07-13T16:03:08;23.20;69.20
37658;DHT22;23500;53.268;8.308;2023-07-13T16:05:34;23.20;69.20
37658;DHT22;23500;53.268;8.308;2023-07-13T16:08:01;23.20;69.40
37658;DHT22;23500;53.268;8.308;2023-07-13T16:10:34;23.20;69.40
37658;DHT22;23500;53.268;8.308;2023-07-13T16:13:03;23.20;69.50
37658;DHT22;23500;53.268;8.308;2023-07-13T16:15:30;23.20;69.40
37658;DHT22;23500;53.268;8.308;2023-07-13T16:17:57;23.10;69.50
37658;DHT22;23500;53.268;8.308;2023-07-13T16:20:23;23.20;69.60
37658;DHT22;23500;53.268;8.308;2023-07-13T16:22:52;23.10;69.50
37658;DHT22;23500;53.268;8.308;2023-07-13T16:25:22;23.10;69.50